Time;durP1;ratioP1;P1;durP2;ratioP2;P2;SDS_P1;SDS_P2;PMS_P1;PMS_P2;Temp;Humidity;BMP_temperature;BMP_pressure;BME280_temperature;BME280_humidity;BME280_pressure;Samples;Min_cycle;Max_cycle;Signal;HPM_P1;HPM_P2
2021/12/03 00:02:23;;;;;;;1.63;1.50;;;0.20;99.90;;;;;;6163811;23;20449;-88
2021/12/03 00:04:48;;;;;;;0.80;0.80;;;0.20;99.90;;;;;;6139664;23;20092;-89
2021/12/03 00:07:14;;;;;;;1.55;1.15;;;0.20;99.90;;;;;;6139021;23;20441;-89
2021/12/03 00:09:40;;;;;;;0.70;0.70;;;0.20;99.90;;;;;;6140571;23;20021;-88
2021/12/03 00:12:06;;;;;;;0.90;0.85;;;0.10;99.90;;;;;;6139513;23;20049;-90
2021/12/03 00:14:33;;;;;;;0.77;0.77;;;0.20;99.90;;;;;;6139328;23;20039;-89
2021/12/03 00:17:00;;;;;;;3.35;1.17;;;0.20;99.90;;;;;;6140595;23;20016;-90
2021/12/03 00:19:25;;;;;;;0.80;0.65;;;0.30;99.90;;;;;;6140292;23;20013;-89
2021/12/03 00:21:51;;;;;;;1.60;1.08;;;0.30;99.90;;;;;;6139130;23;20066;-87
2021/12/03 00:24:17;;;;;;;0.50;0.50;;;0.30;99.90;;;;;;6164552;23;20024;-90
2021/12/03 00:26:42;;;;;;;0.50;0.50;;;0.40;99.90;;;;;;6138486;23;20508;-89
2021/12/03 00:29:08;;;;;;;0.70;0.70;;;0.30;99.90;;;;;;6138788;23;20414;-92
2021/12/03 00:31:34;;;;;;;3.35;3.13;;;0.30;99.90;;;;;;6139266;23;20498;-90
2021/12/03 00:34:00;;;;;;;1.48;1.13;;;0.30;99.90;;;;;;6140843;23;20017;-92
2021/12/03 00:36:27;;;;;;;1.42;1.17;;;0.20;99.90;;;;;;6138865;23;20016;-90
2021/12/03 00:38:57;;;;;;;3.15;2.42;;;0.20;99.90;;;;;;6139401;22;20013;-89
2021/12/03 00:41:24;;;;;;;10.57;2.20;;;0.10;99.90;;;;;;6138921;23;20069;-89
2021/12/03 00:43:52;;;;;;;1.88;1.35;;;0.20;99.90;;;;;;6139490;23;20047;-89
2021/12/03 00:46:19;;;;;;;1.15;1.00;;;0.10;99.90;;;;;;6140367;23;20433;-89
2021/12/03 00:48:47;;;;;;;1.88;0.90;;;0.10;99.90;;;;;;6140553;23;20013;-90
2021/12/03 00:51:14;;;;;;;2.63;1.75;;;0.10;99.90;;;;;;6139407;23;20021;-88
2021/12/03 00:53:40;;;;;;;4.47;1.88;;;0.10;99.90;;;;;;6165260;23;20013;-88
2021/12/03 00:56:06;;;;;;;2.70;1.55;;;0.10;99.90;;;;;;6139222;23;20342;-88
2021/12/03 00:58:32;;;;;;;4.68;2.33;;;0.10;99.90;;;;;;6140870;23;20017;-89
2021/12/03 01:00:58;;;;;;;2.20;1.40;;;0.00;99.90;;;;;;6139899;23;20020;-90
2021/12/03 01:03:24;;;;;;;2.38;1.77;;;0.00;99.90;;;;;;6139721;23;20012;-91
2021/12/03 01:05:53;;;;;;;4.47;2.25;;;0.00;99.90;;;;;;6139817;23;20021;-89
2021/12/03 01:08:18;;;;;;;2.35;1.52;;;0.00;99.90;;;;;;6137612;23;20100;-89
2021/12/03 01:10:44;;;;;;;1.58;1.48;;;0.00;99.90;;;;;;6138998;23;20453;-89
2021/12/03 01:13:10;;;;;;;1.55;1.10;;;0.00;99.90;;;;;;6138197;23;20013;-89
2021/12/03 01:15:38;;;;;;;2.33;1.52;;;0.00;99.90;;;;;;6139553;23;20013;-89
2021/12/03 01:18:06;;;;;;;4.53;1.98;;;0.00;99.90;;;;;;6139002;23;20042;-89
2021/12/03 01:20:33;;;;;;;3.20;2.08;;;-0.10;99.90;;;;;;6137801;22;20017;-88
2021/12/03 01:22:59;;;;;;;0.93;0.88;;;-0.10;99.90;;;;;;6138735;23;20433;-88
2021/12/03 01:25:26;;;;;;;1.48;1.30;;;-0.10;99.90;;;;;;6137854;22;20017;-89
2021/12/03 01:27:52;;;;;;;3.42;2.13;;;-0.10;99.90;;;;;;6162982;23;20442;-89
2021/12/03 01:30:20;;;;;;;1.42;1.33;;;-0.10;99.90;;;;;;6138909;23;20013;-89
2021/12/03 01:32:47;;;;;;;2.97;1.60;;;-0.10;99.90;;;;;;6138098;23;20391;-90
2021/12/03 01:35:13;;;;;;;1.95;1.35;;;-0.10;99.90;;;;;;6137834;23;20096;-90
2021/12/03 01:37:39;;;;;;;2.55;1.85;;;-0.10;99.90;;;;;;6138989;23;20386;-88
2021/12/03 01:40:08;;;;;;;3.20;2.33;;;-0.10;99.90;;;;;;6139813;23;20013;-90
2021/12/03 01:42:33;;;;;;;6.63;4.05;;;-0.10;99.90;;;;;;6162134;23;20031;-90
2021/12/03 01:44:59;;;;;;;0.85;0.82;;;-0.10;99.90;;;;;;6138188;23;20013;-90
2021/12/03 01:47:25;;;;;;;2.83;2.03;;;-0.10;99.90;;;;;;6138341;23;20028;-88
2021/12/03 01:49:51;;;;;;;1.90;1.48;;;-0.10;99.90;;;;;;6137247;23;20060;-89
2021/12/03 01:52:17;;;;;;;0.63;0.63;;;-0.10;99.90;;;;;;6138511;23;20050;-88
2021/12/03 01:54:43;;;;;;;5.13;1.60;;;-0.10;99.90;;;;;;6139074;23;20441;-90
2021/12/03 01:57:09;;;;;;;1.13;1.02;;;-0.10;99.90;;;;;;6139851;23;20009;-89
2021/12/03 01:59:35;;;;;;;1.55;1.20;;;0.00;99.90;;;;;;6141457;23;20013;-89
2021/12/03 02:02:01;;;;;;;1.98;1.10;;;0.90;99.90;;;;;;6167129;23;20089;-89
2021/12/03 02:04:27;;;;;;;3.40;1.35;;;0.00;99.90;;;;;;6140055;23;20353;-89
2021/12/03 02:06:53;;;;;;;2.00;1.38;;;0.10;99.90;;;;;;6166072;23;20035;-89
2021/12/03 02:09:21;;;;;;;4.05;2.75;;;0.10;99.90;;;;;;6163705;23;20040;-93
2021/12/03 02:11:46;;;;;;;1.55;1.45;;;0.10;99.90;;;;;;6138194;23;20017;-94
2021/12/03 02:14:12;;;;;;;2.20;1.65;;;0.20;99.90;;;;;;6139102;23;20212;-89
2021/12/03 02:16:40;;;;;;;2.95;1.73;;;0.20;99.90;;;;;;6164122;23;20073;-89
2021/12/03 02:19:05;;;;;;;1.65;1.33;;;0.30;99.90;;;;;;6138728;23;20314;-89
2021/12/03 02:21:32;;;;;;;1.95;1.45;;;0.30;99.90;;;;;;6139218;23;20088;-89
2021/12/03 02:23:57;;;;;;;4.90;2.15;;;0.30;99.90;;;;;;6139674;23;20043;-90
2021/12/03 02:26:23;;;;;;;3.35;2.50;;;0.30;99.90;;;;;;6138751;23;20013;-88
2021/12/03 02:28:52;;;;;;;0.85;0.85;;;0.30;99.90;;;;;;6138699;23;20017;-94
2021/12/03 02:31:20;;;;;;;4.70;2.63;;;0.80;99.90;;;;;;6115916;23;20024;-90
2021/12/03 02:33:46;;;;;;;4.60;3.17;;;0.30;99.90;;;;;;6140593;23;20058;-89
2021/12/03 02:36:12;;;;;;;3.25;2.45;;;0.30;99.90;;;;;;6140126;23;20005;-90
2021/12/03 02:38:38;;;;;;;3.72;2.53;;;0.30;99.90;;;;;;6140010;23;20327;-91
2021/12/03 02:41:04;;;;;;;3.80;2.35;;;0.30;99.90;;;;;;6139651;23;20013;-90
2021/12/03 02:43:30;;;;;;;1.95;1.42;;;0.70;99.90;;;;;;6137935;23;20028;-90
2021/12/03 02:45:57;;;;;;;2.20;1.38;;;0.30;99.90;;;;;;6138169;23;20082;-89
2021/12/03 02:48:24;;;;;;;2.28;1.55;;;0.30;99.90;;;;;;6139959;23;20083;-90
2021/12/03 02:50:50;;;;;;;5.95;3.60;;;0.30;99.90;;;;;;6139755;23;20017;-88
2021/12/03 02:53:16;;;;;;;3.03;1.83;;;0.30;99.90;;;;;;6162653;22;20027;-91
2021/12/03 02:55:42;;;;;;;2.08;1.48;;;0.90;99.90;;;;;;6137855;23;20393;-89
2021/12/03 02:58:08;;;;;;;3.30;2.13;;;0.30;99.90;;;;;;6141139;23;20017;-90
2021/12/03 03:00:37;;;;;;;3.28;2.03;;;0.30;99.90;;;;;;6139936;23;20009;-89
2021/12/03 03:03:03;;;;;;;2.92;1.42;;;0.30;99.90;;;;;;6140733;23;20384;-89
2021/12/03 03:05:29;;;;;;;2.95;2.10;;;0.30;99.90;;;;;;6139229;23;20047;-90
2021/12/03 03:07:55;;;;;;;2.80;2.03;;;0.30;99.90;;;;;;6115359;23;20024;-89
2021/12/03 03:10:27;;;;;;;1.02;0.95;;;0.30;99.90;;;;;;6140266;23;20013;-89
2021/12/03 03:12:55;;;;;;;3.00;2.00;;;0.30;99.90;;;;;;6139444;22;20056;-89
2021/12/03 03:15:21;;;;;;;4.03;2.47;;;0.30;99.90;;;;;;6139545;23;20013;-90
2021/12/03 03:17:47;;;;;;;9.90;2.40;;;0.30;99.90;;;;;;6140481;23;20009;-89
2021/12/03 03:20:15;;;;;;;2.05;1.70;;;0.30;99.90;;;;;;6138569;23;20017;-89
2021/12/03 03:22:41;;;;;;;4.68;2.47;;;0.30;99.90;;;;;;6139418;23;20068;-90
2021/12/03 03:25:11;;;;;;;1.23;0.88;;;0.30;99.90;;;;;;6137732;23;20055;-88
2021/12/03 03:27:38;;;;;;;5.97;3.42;;;0.30;99.90;;;;;;6138092;23;20491;-89
2021/12/03 03:30:08;;;;;;;5.05;3.33;;;0.30;99.90;;;;;;6163461;23;20024;-88
2021/12/03 03:32:34;;;;;;;4.47;2.20;;;0.30;99.90;;;;;;6139835;22;20013;-89
2021/12/03 03:35:00;;;;;;;3.60;2.05;;;0.30;99.90;;;;;;6165988;23;20010;-88
2021/12/03 03:37:25;;;;;;;2.17;1.63;;;0.30;99.90;;;;;;6139376;23;20013;-90
2021/12/03 03:39:51;;;;;;;4.82;3.35;;;0.30;99.90;;;;;;6139646;23;20005;-89
2021/12/03 03:42:18;;;;;;;1.65;1.42;;;0.30;99.90;;;;;;6140497;23;20017;-89
2021/12/03 03:44:44;;;;;;;6.93;3.25;;;0.40;99.90;;;;;;6140848;23;20027;-90
2021/12/03 03:47:12;;;;;;;4.60;2.28;;;0.40;99.90;;;;;;6164518;23;20024;-90
2021/12/03 03:49:38;;;;;;;3.55;2.05;;;0.40;99.90;;;;;;6139841;23;20064;-89
2021/12/03 03:52:05;;;;;;;10.82;4.68;;;0.40;99.90;;;;;;6140174;23;20066;-90
2021/12/03 03:54:31;;;;;;;6.20;2.88;;;0.40;99.90;;;;;;6138322;23;20383;-89
2021/12/03 03:56:59;;;;;;;2.63;1.55;;;0.40;99.90;;;;;;6141673;23;20012;-91
2021/12/03 03:59:25;;;;;;;4.50;2.47;;;0.40;99.90;;;;;;6139098;23;20013;-90
2021/12/03 04:01:51;;;;;;;4.00;2.78;;;0.40;99.90;;;;;;6140762;23;20013;-90
2021/12/03 04:04:18;;;;;;;9.70;3.70;;;0.40;99.90;;;;;;6165821;23;20017;-89
2021/12/03 04:06:44;;;;;;;3.70;2.28;;;0.40;99.90;;;;;;6139781;23;20025;-89
2021/12/03 04:09:11;;;;;;;3.88;2.17;;;0.40;99.90;;;;;;6141370;23;20042;-89
2021/12/03 04:11:37;;;;;;;5.55;1.92;;;0.40;99.90;;;;;;6140392;23;20016;-89
2021/12/03 04:14:02;;;;;;;4.93;2.35;;;0.60;99.90;;;;;;6141361;23;20040;-88
2021/12/03 04:16:29;;;;;;;1.80;1.27;;;0.40;99.90;;;;;;6163606;23;20508;-90
2021/12/03 04:18:55;;;;;;;3.67;2.42;;;0.40;99.90;;;;;;6140493;22;20017;-87
2021/12/03 04:21:21;;;;;;;2.53;2.00;;;0.40;99.90;;;;;;6138745;23;20015;-92
2021/12/03 04:23:48;;;;;;;6.55;3.45;;;0.40;99.90;;;;;;6117546;23;20008;-89
2021/12/03 04:26:15;;;;;;;5.05;2.97;;;0.40;99.90;;;;;;6139409;23;20100;-91
2021/12/03 04:28:40;;;;;;;5.22;3.45;;;0.40;99.90;;;;;;6164174;23;20027;-91
2021/12/03 04:31:06;;;;;;;1.75;1.20;;;0.40;99.90;;;;;;6164720;23;20052;-90
2021/12/03 04:33:32;;;;;;;3.72;2.50;;;0.40;99.90;;;;;;6139103;23;20013;-88
2021/12/03 04:35:58;;;;;;;3.03;2.10;;;0.40;99.90;;;;;;6141052;23;20088;-90
2021/12/03 04:38:24;;;;;;;7.20;2.90;;;0.50;99.90;;;;;;6141809;23;20071;-89
2021/12/03 04:40:50;;;;;;;12.27;2.55;;;0.40;99.90;;;;;;6136440;23;20016;-90
2021/12/03 04:43:18;;;;;;;3.78;2.50;;;0.40;99.90;;;;;;6139423;23;20036;-90
2021/12/03 04:45:44;;;;;;;3.42;2.22;;;0.50;99.90;;;;;;6116388;23;20031;-89
2021/12/03 04:48:10;;;;;;;1.90;1.70;;;0.50;99.90;;;;;;6139757;23;20350;-90
2021/12/03 04:50:40;;;;;;;2.92;1.42;;;0.50;99.90;;;;;;6137994;23;20049;-95
2021/12/03 04:53:09;;;;;;;4.30;3.00;;;0.50;99.90;;;;;;6166302;23;20024;-90
2021/12/03 04:55:36;;;;;;;7.18;3.20;;;0.40;99.90;;;;;;6140266;23;20017;-89
2021/12/03 04:58:04;;;;;;;4.35;2.58;;;0.40;99.90;;;;;;6138369;23;20023;-90
2021/12/03 05:00:39;;;;;;;1.52;1.42;;;0.50;99.90;;;;;;6139841;23;20035;-90
2021/12/03 05:03:06;;;;;;;;;;;0.40;99.90;;;;;;6139571;23;20463;-90
2021/12/03 05:05:33;;;;;;;1.42;1.17;;;0.50;99.90;;;;;;6138785;22;19912;-88
2021/12/03 05:08:04;;;;;;;2.03;1.70;;;0.50;99.90;;;;;;6140736;23;20017;-92
2021/12/03 05:10:33;;;;;;;1.77;1.20;;;0.50;99.90;;;;;;6138831;23;20074;-90
2021/12/03 05:13:28;;;;;;;9.02;3.10;;;0.60;99.90;;;;;;6161828;23;20020;-90
2021/12/03 05:15:54;;;;;;;3.80;1.90;;;0.60;99.90;;;;;;6139362;22;20017;-89
2021/12/03 05:18:22;;;;;;;2.45;1.58;;;0.60;99.90;;;;;;6139061;23;20017;-89
2021/12/03 05:20:50;;;;;;;2.50;2.15;;;0.70;99.90;;;;;;6138790;23;20035;-90
2021/12/03 05:23:17;;;;;;;7.78;3.45;;;0.70;99.90;;;;;;6139471;23;20457;-89
2021/12/03 05:25:43;;;;;;;1.85;1.65;;;0.70;99.90;;;;;;6138735;23;20048;-91
2021/12/03 05:28:09;;;;;;;3.38;2.17;;;1.80;99.90;;;;;;6138478;22;20025;-92
2021/12/03 05:30:40;;;;;;;0.93;0.85;;;1.20;99.90;;;;;;6163166;23;20020;-92
2021/12/03 05:33:06;;;;;;;5.28;3.05;;;0.70;99.90;;;;;;6138961;23;20024;-91
2021/12/03 05:35:32;;;;;;;3.72;2.15;;;0.80;99.90;;;;;;6137166;23;20062;-89
2021/12/03 05:37:58;;;;;;;8.32;1.70;;;0.90;99.90;;;;;;6123477;22;1016058;-90
2021/12/03 05:40:24;;;;;;;3.60;2.22;;;0.80;99.90;;;;;;6140292;23;20014;-91
2021/12/03 05:42:50;;;;;;;2.70;1.67;;;0.90;99.90;;;;;;6138389;23;20044;-88
2021/12/03 05:45:21;;;;;;;1.70;1.52;;;0.90;99.90;;;;;;6140571;23;20036;-89
2021/12/03 05:47:47;;;;;;;3.47;1.90;;;1.00;99.90;;;;;;6139974;22;20013;-89
2021/12/03 05:50:14;;;;;;;3.35;2.20;;;1.00;99.90;;;;;;6139736;23;20102;-90
2021/12/03 05:52:40;;;;;;;4.82;2.78;;;1.00;99.90;;;;;;6140177;23;20532;-89
2021/12/03 05:55:09;;;;;;;7.78;4.60;;;1.10;99.90;;;;;;6139949;23;20015;-91
2021/12/03 05:57:35;;;;;;;3.30;2.03;;;1.10;99.90;;;;;;6138687;23;20395;-91
2021/12/03 06:00:03;;;;;;;2.92;1.63;;;1.20;99.90;;;;;;6138520;23;20009;-90
2021/12/03 06:02:29;;;;;;;2.13;1.20;;;1.20;99.90;;;;;;6138513;23;20023;-88
2021/12/03 06:04:54;;;;;;;5.65;3.25;;;1.20;99.90;;;;;;6138815;23;20021;-88
2021/12/03 06:07:20;;;;;;;4.30;1.55;;;1.20;99.90;;;;;;6138002;23;20017;-87
2021/12/03 06:09:45;;;;;;;1.95;1.45;;;1.30;99.90;;;;;;6137562;23;20076;-87
2021/12/03 06:12:11;;;;;;;9.13;2.35;;;1.20;99.90;;;;;;6137151;23;20090;-89
2021/12/03 06:14:38;;;;;;;2.92;1.65;;;1.30;99.90;;;;;;6161484;23;20073;-88
2021/12/03 06:17:03;;;;;;;2.78;2.00;;;1.30;99.90;;;;;;6160755;23;20057;-88
2021/12/03 06:19:29;;;;;;;8.15;3.42;;;1.30;99.90;;;;;;6137245;23;20041;-88
2021/12/03 06:21:55;;;;;;;4.15;2.08;;;1.30;99.90;;;;;;6162620;23;20074;-88
2021/12/03 06:24:20;;;;;;;6.00;2.13;;;1.30;99.90;;;;;;6163771;23;20017;-88
2021/12/03 06:26:46;;;;;;;1.30;1.05;;;1.40;99.90;;;;;;6136557;23;20020;-92
2021/12/03 06:29:12;;;;;;;3.90;1.85;;;1.00;99.90;;;;;;6137103;22;20013;-89
2021/12/03 06:31:37;;;;;;;0.60;0.60;;;1.40;99.90;;;;;;6136496;23;20410;-87
2021/12/03 06:34:03;;;;;;;2.75;1.55;;;1.40;99.90;;;;;;6137408;23;20056;-89
2021/12/03 06:36:29;;;;;;;4.00;2.17;;;1.40;99.90;;;;;;6137775;23;20024;-90
2021/12/03 06:38:54;;;;;;;4.78;2.15;;;1.40;99.90;;;;;;6137224;23;20311;-88
2021/12/03 06:41:20;;;;;;;2.97;2.13;;;1.40;99.90;;;;;;6137893;23;20555;-88
2021/12/03 06:43:46;;;;;;;4.25;1.75;;;1.40;99.90;;;;;;6159267;23;20023;-88
2021/12/03 06:46:11;;;;;;;3.33;2.08;;;1.40;99.90;;;;;;6162131;23;20009;-87
2021/12/03 06:48:37;;;;;;;3.17;1.20;;;1.50;99.90;;;;;;6137968;23;20042;-89
2021/12/03 06:51:02;;;;;;;5.20;2.85;;;1.50;99.90;;;;;;6137717;23;20338;-88
2021/12/03 06:53:40;;;;;;;0.95;0.85;;;1.50;99.90;;;;;;6137004;23;20017;-91
2021/12/03 06:56:08;;;;;;;3.13;1.73;;;1.90;99.90;;;;;;6135194;23;20013;-89
2021/12/03 06:58:34;;;;;;;2.30;1.65;;;1.40;99.90;;;;;;6135502;23;20070;-86
2021/12/03 07:01:00;;;;;;;6.00;2.22;;;1.40;99.90;;;;;;6136089;23;20013;-87
2021/12/03 07:03:25;;;;;;;4.80;2.72;;;1.40;99.90;;;;;;6137542;23;20356;-90
2021/12/03 07:05:51;;;;;;;1.40;1.13;;;1.40;99.90;;;;;;6137423;23;20017;-89
2021/12/03 07:08:17;;;;;;;3.28;1.77;;;1.40;99.90;;;;;;6136638;23;20013;-89
2021/12/03 07:10:43;;;;;;;3.90;2.65;;;1.40;99.90;;;;;;6135703;23;20096;-90
2021/12/03 07:13:08;;;;;;;4.38;2.13;;;1.40;99.90;;;;;;6159769;22;20104;-89
2021/12/03 07:15:34;;;;;;;4.30;2.28;;;1.40;99.90;;;;;;6137957;23;20020;-90
2021/12/03 07:18:00;;;;;;;1.50;1.08;;;2.30;99.90;;;;;;6161251;23;20044;-89
2021/12/03 07:20:27;;;;;;;1.33;1.00;;;1.40;99.90;;;;;;6137220;23;20017;-88
2021/12/03 07:22:54;;;;;;;5.18;2.53;;;1.40;99.90;;;;;;6136380;23;20009;-88
2021/12/03 07:25:20;;;;;;;6.85;2.10;;;1.40;99.90;;;;;;6137783;23;20024;-88
2021/12/03 07:27:46;;;;;;;2.33;1.58;;;1.40;99.90;;;;;;6160418;23;20024;-88
2021/12/03 07:30:14;;;;;;;9.38;2.88;;;1.40;99.90;;;;;;6137767;23;20323;-87
2021/12/03 07:32:40;;;;;;;0.82;0.80;;;1.50;99.90;;;;;;6161299;23;20028;-86
2021/12/03 07:35:07;;;;;;;3.85;1.85;;;1.50;99.90;;;;;;6135978;23;20088;-87
2021/12/03 07:37:33;;;;;;;3.92;2.33;;;1.60;99.90;;;;;;6160794;23;20152;-89
2021/12/03 07:40:02;;;;;;;5.20;1.75;;;1.90;99.90;;;;;;6137715;23;20013;-85
2021/12/03 07:42:28;;;;;;;8.57;2.70;;;1.70;99.90;;;;;;6163182;23;20009;-90
2021/12/03 07:44:53;;;;;;;4.00;1.98;;;1.80;99.90;;;;;;6139113;23;20024;-87
2021/12/03 07:47:20;;;;;;;4.57;1.90;;;1.90;99.90;;;;;;6136234;23;20009;-88
2021/12/03 07:49:48;;;;;;;4.82;2.63;;;1.90;99.90;;;;;;6137569;23;20012;-88
2021/12/03 07:52:15;;;;;;;5.55;1.58;;;2.00;99.90;;;;;;6163438;23;20065;-88
2021/12/03 07:54:40;;;;;;;2.22;1.52;;;2.00;99.90;;;;;;6138846;23;20036;-88
2021/12/03 07:57:06;;;;;;;4.10;2.45;;;2.00;99.90;;;;;;6138196;23;20013;-87
2021/12/03 07:59:32;;;;;;;3.55;2.47;;;2.10;99.90;;;;;;6138940;23;20020;-90
2021/12/03 08:01:57;;;;;;;5.40;3.22;;;2.10;99.90;;;;;;6137048;23;20464;-88
2021/12/03 08:04:24;;;;;;;3.53;2.20;;;2.20;99.90;;;;;;6137541;23;20484;-89
2021/12/03 08:06:52;;;;;;;16.17;3.55;;;2.20;99.90;;;;;;6138473;23;20013;-90
2021/12/03 08:09:19;;;;;;;9.50;5.00;;;2.20;99.90;;;;;;6137579;22;20042;-89
2021/12/03 08:11:45;;;;;;;11.73;4.47;;;2.20;99.90;;;;;;6136021;23;20118;-89
2021/12/03 08:14:11;;;;;;;4.75;2.67;;;2.30;99.90;;;;;;6137768;23;20017;-89
2021/12/03 08:16:37;;;;;;;4.57;2.75;;;2.20;99.90;;;;;;6139440;23;19997;-89
2021/12/03 08:19:03;;;;;;;5.13;3.20;;;2.20;99.90;;;;;;6137175;23;20069;-85
2021/12/03 08:21:29;;;;;;;8.70;2.85;;;2.10;99.90;;;;;;6156916;23;20013;-87
2021/12/03 08:23:55;;;;;;;5.65;2.55;;;2.10;99.90;;;;;;6132040;23;20122;-88
2021/12/03 08:26:21;;;;;;;9.45;4.70;;;2.10;99.90;;;;;;6135977;23;20013;-92
2021/12/03 08:28:47;;;;;;;8.98;4.10;;;2.10;99.90;;;;;;6140935;23;20458;-92
2021/12/03 08:31:16;;;;;;;8.30;4.55;;;2.10;99.90;;;;;;6140027;23;20012;-93
2021/12/03 08:33:43;;;;;;;8.63;4.50;;;2.20;99.90;;;;;;6141623;23;20445;-95
2021/12/03 08:36:17;;;;;;;12.48;7.47;;;2.90;99.90;;;;;;6118578;23;20009;-91
2021/12/03 08:38:48;;;;;;;8.95;4.68;;;2.20;99.90;;;;;;6142790;23;20041;-90
2021/12/03 08:41:17;;;;;;;4.22;2.45;;;1.60;99.90;;;;;;6142384;22;20054;-93
2021/12/03 08:43:47;;;;;;;8.20;4.15;;;2.30;99.90;;;;;;6141796;23;20017;-93
2021/12/03 08:48:49;;;;;;;8.95;5.07;;;2.20;99.90;;;;;;6165993;23;20391;-93
2021/12/03 08:56:47;;;;;;;10.48;4.82;;;2.30;99.90;;;;;;6167899;23;20032;-93
2021/12/03 08:59:15;;;;;;;14.43;4.45;;;2.40;99.90;;;;;;6143133;23;20067;-92
2021/12/03 09:01:43;;;;;;;16.58;5.38;;;2.90;99.90;;;;;;6170229;23;20013;-92
2021/12/03 09:04:15;;;;;;;11.40;5.20;;;2.50;99.90;;;;;;6171108;23;20320;-91
2021/12/03 09:06:42;;;;;;;7.18;2.60;;;2.80;99.90;;;;;;6146011;22;20020;-92
2021/12/03 09:09:08;;;;;;;10.63;4.22;;;1.90;99.90;;;;;;6146117;23;20096;-92
2021/12/03 09:11:38;;;;;;;7.05;3.83;;;2.70;99.90;;;;;;6146221;23;20017;-90
2021/12/03 09:14:32;;;;;;;12.15;3.78;;;2.60;99.90;;;;;;6170138;23;20086;-91
2021/12/03 09:22:25;;;;;;;27.35;4.93;;;2.70;99.90;;;;;;6169403;23;20039;-92
2021/12/03 09:24:51;;;;;;;8.00;4.35;;;2.80;99.90;;;;;;6145026;23;20017;-92
2021/12/03 09:27:17;;;;;;;8.93;4.63;;;2.90;99.90;;;;;;6145481;23;20078;-93
2021/12/03 09:29:43;;;;;;;7.85;4.65;;;2.80;99.90;;;;;;6145792;23;20001;-93
2021/12/03 09:32:09;;;;;;;5.53;2.90;;;3.90;99.90;;;;;;6117987;23;20017;-92
2021/12/03 09:34:35;;;;;;;9.75;4.80;;;2.90;99.90;;;;;;6140922;23;20023;-92
2021/12/03 09:37:01;;;;;;;10.05;3.70;;;2.80;99.90;;;;;;6140994;23;20040;-92
2021/12/03 09:39:27;;;;;;;22.67;4.47;;;3.00;99.90;;;;;;6141283;23;20068;-93
2021/12/03 09:41:54;;;;;;;22.63;5.82;;;2.80;99.90;;;;;;6141083;23;20019;-92
2021/12/03 09:44:21;;;;;;;7.53;3.03;;;3.00;99.90;;;;;;6139367;23;20442;-91
2021/12/03 09:46:50;;;;;;;7.25;3.47;;;3.00;99.90;;;;;;6140470;22;20028;-92
2021/12/03 09:49:26;;;;;;;10.73;3.05;;;4.70;99.90;;;;;;6139162;23;20028;-90
2021/12/03 09:54:24;;;;;;;9.13;4.22;;;3.10;99.90;;;;;;6165811;23;20021;-92
2021/12/03 09:57:10;;;;;;;9.88;3.80;;;3.00;99.90;;;;;;6134182;23;20021;-95
2021/12/03 10:02:27;;;;;;;10.13;4.22;;;2.90;99.90;;;;;;6163855;23;20023;-92
2021/12/03 10:13:40;;;;;;;10.43;4.28;;;3.10;99.90;;;;;;6161631;22;20021;-91
2021/12/03 10:16:38;;;;;;;9.38;3.75;;;2.90;99.90;;;;;;6161510;22;20017;-92
2021/12/03 10:19:36;;;;;;;8.60;3.80;;;3.10;99.90;;;;;;6152934;22;20041;-93
2021/12/03 10:25:56;;;;;;;9.52;3.63;;;3.10;99.90;;;;;;6162313;22;20021;-94
2021/12/03 10:36:59;;;;;;;7.63;3.30;;;3.10;99.90;;;;;;6168545;22;20054;-93
2021/12/03 10:39:52;;;;;;;7.60;4.00;;;3.50;99.90;;;;;;6141034;22;20432;-92
2021/12/03 10:45:36;;;;;;;15.25;4.15;;;4.10;99.90;;;;;;6162857;23;20019;-94
2021/12/03 10:51:02;;;;;;;10.13;2.90;;;3.20;99.90;;;;;;6165724;22;20109;-94
2021/12/03 10:54:01;;;;;;;10.93;4.22;;;3.00;99.90;;;;;;6143518;23;20013;-95
2021/12/03 10:56:52;;;;;;;5.32;2.65;;;3.20;99.90;;;;;;6128521;23;20397;-95
2021/12/03 11:02:25;;;;;;;10.45;3.53;;;3.10;99.90;;;;;;6165743;23;20050;-94
2021/12/03 11:33:34;;;;;;;5.47;2.40;;;3.90;99.90;;;;;;6202894;23;20028;-93
2021/12/03 11:49:56;;;;;;;5.90;2.33;;;3.30;99.90;;;;;;6164001;23;20353;-92
2021/12/03 11:55:34;;;;;;;5.75;2.13;;;4.30;99.90;;;;;;6162026;22;20454;-91
2021/12/03 12:10:03;;;;;;;4.43;2.55;;;3.20;99.90;;;;;;6190290;23;20032;-91
2021/12/03 12:19:18;;;;;;;6.93;2.78;;;3.00;99.90;;;;;;6162210;22;20021;-91
2021/12/03 12:44:25;;;;;;;4.55;2.33;;;3.10;99.90;;;;;;6164870;22;20079;-94
2021/12/03 13:20:37;;;;;;;13.02;5.05;;;3.50;99.90;;;;;;6165732;22;20021;-94
2021/12/03 14:07:31;;;;;;;9.30;3.75;;;4.00;99.90;;;;;;6163669;22;20028;-96
2021/12/03 14:30:36;;;;;;;3.28;1.88;;;3.60;99.90;;;;;;6164854;23;20025;-93
2021/12/03 14:37:53;;;;;;;4.22;2.40;;;4.70;99.90;;;;;;6165645;22;20078;-94
2021/12/03 14:43:43;;;;;;;5.20;2.05;;;3.60;99.90;;;;;;6159292;23;20082;-93
2021/12/03 14:56:19;;;;;;;4.25;2.55;;;3.90;99.90;;;;;;6143435;23;20021;-93
2021/12/03 14:59:17;;;;;;;6.38;2.50;;;4.70;99.90;;;;;;6143061;23;20024;-95
2021/12/03 15:01:54;;;;;;;4.78;2.75;;;3.90;99.90;;;;;;6143175;23;20017;-95
2021/12/03 15:04:50;;;;;;;4.82;2.33;;;3.90;99.90;;;;;;6142140;23;20070;-95
2021/12/03 15:07:36;;;;;;;4.78;2.40;;;3.30;99.90;;;;;;6139408;23;20051;-94
2021/12/03 15:10:14;;;;;;;8.30;2.83;;;4.40;99.90;;;;;;6165586;22;20025;-94
2021/12/03 15:13:06;;;;;;;6.28;2.38;;;3.90;99.90;;;;;;6116146;23;20021;-94
2021/12/03 15:16:16;;;;;;;4.93;2.67;;;3.80;99.90;;;;;;6163377;22;20017;-94
2021/12/03 15:32:12;;;;;;;4.32;2.45;;;4.30;99.90;;;;;;6163207;23;20082;-93
2021/12/03 15:53:16;;;;;;;4.43;2.53;;;3.90;99.90;;;;;;6161326;23;20028;-94
2021/12/03 15:58:26;;;;;;;4.05;2.20;;;4.20;99.90;;;;;;6164761;23;20017;-94
2021/12/03 16:06:29;;;;;;;4.25;2.45;;;4.90;99.90;;;;;;6166678;22;20021;-94
2021/12/03 16:09:01;;;;;;;6.43;3.35;;;3.90;99.90;;;;;;6139954;23;20014;-95
2021/12/03 16:17:12;;;;;;;8.95;3.53;;;3.90;99.90;;;;;;6185820;23;20032;-93
2021/12/03 16:44:00;;;;;;;4.78;3.00;;;4.10;99.90;;;;;;6164064;23;20024;-94
2021/12/03 16:46:39;;;;;;;2.78;2.05;;;6.10;99.90;;;;;;6141187;23;20061;-94
2021/12/03 16:51:51;;;;;;;3.13;2.20;;;3.90;99.90;;;;;;6165163;23;20025;-95
2021/12/03 16:54:36;;;;;;;4.57;2.80;;;4.00;99.90;;;;;;6141188;23;20017;-93
2021/12/03 16:57:02;;;;;;;7.00;3.00;;;4.50;99.90;;;;;;6142153;23;20020;-92
2021/12/03 16:59:28;;;;;;;5.38;2.28;;;4.00;99.90;;;;;;6139697;23;20025;-92
2021/12/03 17:04:53;;;;;;;3.97;2.58;;;4.10;99.90;;;;;;6192452;23;20044;-92
2021/12/03 17:13:00;;;;;;;7.13;3.53;;;4.00;99.90;;;;;;6163391;23;20024;-91
2021/12/03 17:58:10;;;;;;;5.60;3.83;;;4.00;99.90;;;;;;6166451;22;20021;-94
2021/12/03 18:00:43;;;;;;;6.45;4.80;;;4.90;99.90;;;;;;6141882;23;20100;-95
2021/12/03 18:03:25;;;;;;;9.00;6.68;;;4.00;99.90;;;;;;6121638;23;20048;-94
2021/12/03 18:06:07;;;;;;;5.95;3.30;;;3.50;99.90;;;;;;6143163;23;20024;-94
2021/12/03 18:08:51;;;;;;;5.57;3.72;;;4.00;99.90;;;;;;6141744;22;20024;-93
2021/12/03 18:51:59;;;;;;;5.68;3.53;;;5.00;99.90;;;;;;6167943;22;20104;-94
2021/12/03 18:57:08;;;;;;;6.25;4.07;;;3.90;99.90;;;;;;6167396;23;20029;-95
2021/12/03 18:59:40;;;;;;;7.88;4.65;;;4.50;99.90;;;;;;6143030;22;20108;-95
2021/12/03 19:02:09;;;;;;;7.63;5.15;;;4.60;99.90;;;;;;6142507;23;20017;-95
2021/12/03 19:04:47;;;;;;;4.88;3.28;;;4.10;99.90;;;;;;6142707;23;20080;-96
2021/12/03 19:07:21;;;;;;;3.38;2.05;;;4.00;99.90;;;;;;6141248;23;20021;-96
2021/12/03 19:09:51;;;;;;;6.10;4.03;;;4.10;99.90;;;;;;6137796;22;20036;-93
2021/12/03 19:12:38;;;;;;;7.90;4.38;;;4.90;99.90;;;;;;6136882;23;20028;-94
2021/12/03 19:15:06;;;;;;;6.70;4.22;;;4.60;99.90;;;;;;6143736;23;20025;-93
2021/12/03 19:17:36;;;;;;;16.88;7.25;;;4.10;99.90;;;;;;6142888;22;20039;-95
2021/12/03 19:20:10;;;;;;;7.82;4.60;;;4.40;99.90;;;;;;6162802;23;20063;-93
2021/12/03 19:22:37;;;;;;;8.20;4.80;;;4.10;99.90;;;;;;6143580;23;20070;-95
2021/12/03 19:25:04;;;;;;;6.28;3.72;;;4.40;99.90;;;;;;6144640;23;20024;-94
2021/12/03 19:27:30;;;;;;;5.68;2.78;;;3.70;99.90;;;;;;6120283;23;20024;-94
2021/12/03 19:29:57;;;;;;;6.28;3.38;;;4.10;99.90;;;;;;6144539;23;20009;-95
2021/12/03 19:32:26;;;;;;;5.78;3.40;;;4.70;99.90;;;;;;6140261;23;20044;-94
2021/12/03 19:34:52;;;;;;;2.30;1.55;;;4.20;99.90;;;;;;6138932;22;20017;-95
2021/12/03 19:37:23;;;;;;;7.25;4.22;;;5.30;99.90;;;;;;6163742;23;20122;-94
2021/12/03 19:39:52;;;;;;;6.38;4.28;;;4.80;99.90;;;;;;6161005;23;20013;-93
2021/12/03 19:42:21;;;;;;;6.25;3.88;;;6.50;99.90;;;;;;6136341;23;20017;-95
2021/12/03 19:47:19;;;;;;;6.72;4.30;;;4.10;99.90;;;;;;6162427;23;20036;-95
2021/12/03 19:49:51;;;;;;;4.68;3.42;;;4.30;99.90;;;;;;6161553;23;20094;-95
2021/12/03 19:52:30;;;;;;;3.85;2.25;;;4.10;99.90;;;;;;6138810;23;20017;-95
2021/12/03 19:54:56;;;;;;;11.20;6.82;;;4.20;99.90;;;;;;6135720;22;20100;-94
2021/12/03 19:57:25;;;;;;;12.30;7.07;;;4.50;99.90;;;;;;6167306;22;20036;-95
2021/12/03 19:59:52;;;;;;;2.72;2.00;;;4.00;99.90;;;;;;6137740;23;20013;-95
2021/12/03 20:02:18;;;;;;;6.85;4.07;;;4.10;99.90;;;;;;6137047;22;20032;-94
2021/12/03 20:04:47;;;;;;;4.78;2.95;;;4.50;99.90;;;;;;6138925;23;20061;-95
2021/12/03 20:07:13;;;;;;;8.60;5.07;;;4.10;99.90;;;;;;6141031;22;20017;-93